createdAt,value
2018-04-11T00:00:29.603Z,37.50
2018-04-11T00:01:29.573Z,36.90
2018-04-11T00:02:29.547Z,37.60
2018-04-11T00:03:29.531Z,37.90
2018-04-11T00:04:29.506Z,40.40
2018-04-11T00:05:29.476Z,37.00
2018-04-11T00:06:29.457Z,37.90
2018-04-11T00:07:29.424Z,41.30
2018-04-11T00:08:29.402Z,39.00
2018-04-11T00:09:29.380Z,42.00
2018-04-11T00:10:29.352Z,41.30
2018-04-11T00:11:29.330Z,39.90
2018-04-11T00:12:29.308Z,39.90
2018-04-11T00:13:29.275Z,42.50
2018-04-11T00:14:29.253Z,37.00
2018-04-11T00:15:29.235Z,38.80
2018-04-11T00:16:29.204Z,39.00
2018-04-11T00:17:29.179Z,41.70
2018-04-11T00:18:29.158Z,38.50
2018-04-11T00:19:29.135Z,39.30
2018-04-11T00:20:29.108Z,39.60
2018-04-11T00:21:29.079Z,39.60
2018-04-11T00:22:29.064Z,39.70
2018-04-11T00:23:29.030Z,42.10
2018-04-11T00:24:29.013Z,45.20
2018-04-11T00:25:28.984Z,42.70
2018-04-11T00:26:28.963Z,40.30
2018-04-11T00:27:28.927Z,39.90
2018-04-11T00:28:28.908Z,41.80
2018-04-11T00:29:28.883Z,37.80
2018-04-11T00:30:28.852Z,40.00
2018-04-11T00:31:28.839Z,43.20
2018-04-11T00:32:28.806Z,38.10
2018-04-11T00:33:28.778Z,47.60
2018-04-11T00:34:28.753Z,41.80
2018-04-11T00:35:28.731Z,41.00
2018-04-11T00:36:28.705Z,40.00
2018-04-11T00:37:28.674Z,40.60
2018-04-11T00:38:28.654Z,39.30
2018-04-11T00:39:28.629Z,40.80
2018-04-11T00:40:28.605Z,43.70
2018-04-11T00:41:28.581Z,45.70
2018-04-11T00:42:28.548Z,46.60
2018-04-11T00:43:28.532Z,42.50
2018-04-11T00:44:28.501Z,38.40
2018-04-11T00:45:28.483Z,38.70
2018-04-11T00:46:28.507Z,40.20
2018-04-11T00:47:28.427Z,37.40
2018-04-11T00:48:28.408Z,39.90
2018-04-11T00:49:28.376Z,40.70
2018-04-11T00:50:28.350Z,38.90
2018-04-11T00:51:28.331Z,37.20
2018-04-11T00:52:28.308Z,43.40
2018-04-11T00:53:28.283Z,44.30
2018-04-11T00:54:28.262Z,38.10
2018-04-11T00:55:28.227Z,40.40
2018-04-11T00:56:28.206Z,45.50
2018-04-11T00:57:28.178Z,41.90
2018-04-11T00:58:28.154Z,41.70
2018-04-11T00:59:28.133Z,42.40
2018-04-11T01:00:28.106Z,39.90
2018-04-11T01:01:28.083Z,42.20
2018-04-11T01:02:28.053Z,38.30
2018-04-11T01:03:28.037Z,38.70
2018-04-11T01:04:28.005Z,49.60
2018-04-11T01:05:27.988Z,45.30
2018-04-11T01:06:27.955Z,43.20
2018-04-11T01:07:27.929Z,38.40
2018-04-11T01:08:27.911Z,38.00
2018-04-11T01:09:27.881Z,40.40
2018-04-11T01:10:27.859Z,39.30
2018-04-11T01:11:27.833Z,44.30
2018-04-11T01:12:27.807Z,46.00
2018-04-11T01:13:27.782Z,41.80
2018-04-11T01:14:27.756Z,48.80
2018-04-11T01:15:27.740Z,47.10
2018-04-11T01:16:27.707Z,50.50
2018-04-11T01:17:27.690Z,47.30
2018-04-11T01:18:27.660Z,39.90
2018-04-11T01:19:27.638Z,41.80
2018-04-11T01:20:27.612Z,53.30
2018-04-11T01:21:27.590Z,44.20
2018-04-11T01:22:27.566Z,48.30
2018-04-11T01:23:27.539Z,45.40
2018-04-11T01:24:27.516Z,37.80
2018-04-11T01:25:27.487Z,43.50
2018-04-11T01:26:27.461Z,42.40
2018-04-11T01:27:27.436Z,44.20
2018-04-11T01:28:27.419Z,49.40
2018-04-11T01:29:27.393Z,47.90
2018-04-11T01:30:27.366Z,48.30
2018-04-11T01:31:27.343Z,41.70
2018-04-11T01:32:27.324Z,43.00
2018-04-11T01:33:27.287Z,42.10
2018-04-11T01:34:27.268Z,43.30
2018-04-11T01:35:27.242Z,41.80
2018-04-11T01:36:27.216Z,46.00
2018-04-11T01:37:27.198Z,41.80
2018-04-11T01:38:27.167Z,40.50
2018-04-11T01:39:27.146Z,44.10
2018-04-11T01:40:27.120Z,47.20
2018-04-11T01:41:27.100Z,45.90
2018-04-11T01:42:27.072Z,48.40
2018-04-11T01:43:27.050Z,44.70
2018-04-11T01:44:27.024Z,47.30
2018-04-11T01:45:26.996Z,51.20
2018-04-11T01:46:26.974Z,54.20
2018-04-11T01:47:26.947Z,51.60
2018-04-11T01:48:26.921Z,54.20
2018-04-11T01:49:26.904Z,53.00
2018-04-11T01:50:26.876Z,52.00
2018-04-11T01:51:26.853Z,53.70
2018-04-11T01:52:26.831Z,57.50
2018-04-11T01:53:26.801Z,54.30
2018-04-11T01:54:26.772Z,52.60
2018-04-11T01:55:26.751Z,52.60
2018-04-11T01:56:26.731Z,52.50
2018-04-11T01:57:26.702Z,54.00
2018-04-11T01:58:26.692Z,54.60
2018-04-11T01:59:26.655Z,47.80
2018-04-11T02:00:26.630Z,49.00
2018-04-11T02:01:26.602Z,44.60
2018-04-11T02:02:26.592Z,44.10
2018-04-11T02:03:26.555Z,50.70
2018-04-11T02:04:26.539Z,47.60
2018-04-11T02:05:26.505Z,48.50
2018-04-11T02:06:26.486Z,45.70
2018-04-11T02:07:26.460Z,47.50
2018-04-11T02:08:26.439Z,52.70
2018-04-11T02:09:26.411Z,54.50
2018-04-11T02:10:26.386Z,53.40
2018-04-11T02:11:26.361Z,56.20
2018-04-11T02:12:26.343Z,57.70
2018-04-11T02:13:26.312Z,61.30
2018-04-11T02:14:26.291Z,55.70
2018-04-11T02:15:26.266Z,61.70
2018-04-11T02:16:26.242Z,55.00
2018-04-11T02:17:26.216Z,62.10
2018-04-11T02:18:26.188Z,65.10
2018-04-11T02:19:26.172Z,59.00
2018-04-11T02:20:26.138Z,56.10
2018-04-11T02:21:26.122Z,64.00
2018-04-11T02:22:26.093Z,59.70
2018-04-11T02:23:26.072Z,60.90
2018-04-11T02:24:26.045Z,53.90
2018-04-11T02:25:26.025Z,51.20
2018-04-11T02:26:25.993Z,51.00
2018-04-11T02:27:25.976Z,54.90
2018-04-11T02:28:25.951Z,57.40
2018-04-11T02:29:25.922Z,55.80
2018-04-11T02:30:25.899Z,53.70
2018-04-11T02:31:25.878Z,57.40
2018-04-11T02:32:25.851Z,55.10
2018-04-11T02:33:25.824Z,56.40
2018-04-11T02:34:25.800Z,55.00
2018-04-11T02:35:25.779Z,49.60
2018-04-11T02:36:25.758Z,51.90
2018-04-11T02:37:25.726Z,48.30
2018-04-11T02:38:25.706Z,49.60
2018-04-11T02:39:25.685Z,53.40
2018-04-11T02:40:25.655Z,55.50
2018-04-11T02:41:25.637Z,66.20
2018-04-11T02:42:25.608Z,72.70
2018-04-11T02:43:25.585Z,69.00
2018-04-11T02:44:25.565Z,75.80
2018-04-11T02:45:25.530Z,56.10
2018-04-11T02:46:25.512Z,66.60
2018-04-11T02:47:25.494Z,68.70
2018-04-11T02:48:25.458Z,56.30
2018-04-11T02:49:25.436Z,52.50
2018-04-11T02:50:25.408Z,52.00
2018-04-11T02:51:25.391Z,51.40
2018-04-11T02:52:25.364Z,62.40
2018-04-11T02:53:25.336Z,53.60
2018-04-11T02:54:25.317Z,57.20
2018-04-11T02:55:25.287Z,55.70
2018-04-11T02:56:25.263Z,69.20
2018-04-11T02:57:25.241Z,60.60
2018-04-11T02:58:25.211Z,75.00
2018-04-11T02:59:25.195Z,69.10
2018-04-11T03:00:25.166Z,73.30
2018-04-11T03:01:25.147Z,78.60
2018-04-11T03:02:25.116Z,69.40
2018-04-11T03:03:25.097Z,78.50
2018-04-11T03:04:25.070Z,74.00
2018-04-11T03:05:25.045Z,81.90
2018-04-11T03:06:25.018Z,83.00
2018-04-11T03:07:25.005Z,84.60
2018-04-11T03:08:24.971Z,76.70
2018-04-11T03:09:24.953Z,73.90
2018-04-11T03:10:24.919Z,91.80
2018-04-11T03:11:24.901Z,88.30
2018-04-11T03:12:24.876Z,76.80
2018-04-11T03:13:24.854Z,90.80
2018-04-11T03:14:24.829Z,89.20
2018-04-11T03:15:24.797Z,88.00
2018-04-11T03:16:24.781Z,88.20
2018-04-11T03:17:24.752Z,82.90
2018-04-11T03:18:24.741Z,89.80
2018-04-11T03:19:24.702Z,90.80
2018-04-11T03:20:24.684Z,99.60
2018-04-11T03:21:24.653Z,88.90
2018-04-11T03:22:24.629Z,97.60
2018-04-11T03:23:24.602Z,97.50
2018-04-11T03:24:24.580Z,107.70
2018-04-11T03:25:24.552Z,98.20
2018-04-11T03:26:24.532Z,105.40
2018-04-11T03:27:24.500Z,121.60
2018-04-11T03:28:24.484Z,114.60
2018-04-11T03:29:24.451Z,127.10
2018-04-11T03:30:24.426Z,119.70
2018-04-11T03:31:24.409Z,115.50
2018-04-11T03:32:24.384Z,140.10
2018-04-11T03:33:24.354Z,143.60
2018-04-11T03:34:24.336Z,142.70
2018-04-11T03:35:24.307Z,140.10
2018-04-11T03:36:24.280Z,152.60
2018-04-11T03:37:24.253Z,145.60
2018-04-11T03:38:24.235Z,147.50
2018-04-11T03:39:24.205Z,132.30
2018-04-11T03:40:24.181Z,142.80
2018-04-11T03:41:24.159Z,148.50
2018-04-11T03:42:24.129Z,140.60
2018-04-11T03:43:24.112Z,147.30
2018-04-11T03:44:24.088Z,152.80
2018-04-11T03:45:24.057Z,140.70
2018-04-11T03:46:24.033Z,151.60
2018-04-11T03:47:24.010Z,189.20
2018-04-11T03:48:23.988Z,161.60
2018-04-11T03:49:23.958Z,171.80
2018-04-11T03:50:23.935Z,175.50
2018-04-11T03:51:23.915Z,171.30
2018-04-11T03:52:23.879Z,194.50
2018-04-11T03:53:23.858Z,199.60
2018-04-11T03:54:23.829Z,158.40
2018-04-11T03:55:23.813Z,184.90
2018-04-11T03:56:23.789Z,185.60
2018-04-11T03:57:23.757Z,174.20
2018-04-11T03:58:23.737Z,171.00
2018-04-11T03:59:23.712Z,238.80
2018-04-11T04:00:23.683Z,231.20
2018-04-11T04:01:23.659Z,201.20
2018-04-11T04:02:23.629Z,187.90
2018-04-11T04:03:23.612Z,181.40
2018-04-11T04:04:23.583Z,196.60
2018-04-11T04:05:23.562Z,205.00
2018-04-11T04:06:23.533Z,174.90
2018-04-11T04:07:23.509Z,157.70
2018-04-11T04:08:23.484Z,168.10
2018-04-11T04:09:23.459Z,139.70
2018-04-11T04:10:23.439Z,141.10
2018-04-11T04:11:23.406Z,119.80
2018-04-11T04:12:23.390Z,131.80
2018-04-11T04:13:23.355Z,130.80
2018-04-11T04:14:23.337Z,116.20
2018-04-11T04:15:23.308Z,115.90
2018-04-11T04:16:23.288Z,125.40
2018-04-11T04:17:23.255Z,118.60
2018-04-11T04:18:23.244Z,145.90
2018-04-11T04:19:23.205Z,142.10
2018-04-11T04:20:23.189Z,145.70
2018-04-11T04:21:23.157Z,138.50
2018-04-11T04:22:23.138Z,136.10
2018-04-11T04:23:23.110Z,145.50
2018-04-11T04:24:23.088Z,137.20
2018-04-11T04:25:23.066Z,158.30
2018-04-11T04:26:23.031Z,137.80
2018-04-11T04:27:23.015Z,147.30
2018-04-11T04:28:22.992Z,148.00
2018-04-11T04:29:22.958Z,144.20
2018-04-11T04:30:22.978Z,146.90
2018-04-11T04:31:22.911Z,160.10
2018-04-11T04:32:22.892Z,148.00
2018-04-11T04:33:22.858Z,159.50
2018-04-11T04:34:22.834Z,166.90
2018-04-11T04:35:22.810Z,139.40
2018-04-11T04:36:22.790Z,133.90
2018-04-11T04:37:22.757Z,140.30
2018-04-11T04:38:22.731Z,151.20
2018-04-11T04:39:22.708Z,156.00
2018-04-11T04:40:22.683Z,130.30
2018-04-11T04:41:22.659Z,126.80
2018-04-11T04:42:22.637Z,144.00
2018-04-11T04:43:22.609Z,140.60
2018-04-11T04:44:22.586Z,144.50
2018-04-11T04:45:22.557Z,133.50
2018-04-11T04:46:22.539Z,135.60
2018-04-11T04:47:22.513Z,127.50
2018-04-11T04:48:22.495Z,128.50
2018-04-11T04:49:22.456Z,103.50
2018-04-11T04:50:22.433Z,119.30
2018-04-11T04:51:22.414Z,125.00
2018-04-11T04:52:22.390Z,121.50
2018-04-11T04:53:22.368Z,117.40
2018-04-11T04:54:22.343Z,115.50
2018-04-11T04:55:22.306Z,109.90
2018-04-11T04:56:22.284Z,121.30
2018-04-11T04:57:22.256Z,130.40
2018-04-11T04:58:22.234Z,111.40
2018-04-11T04:59:22.212Z,122.20
2018-04-11T05:00:22.185Z,112.00
2018-04-11T05:01:22.162Z,96.50
2018-04-11T05:02:22.131Z,94.40
2018-04-11T05:03:22.116Z,89.80
2018-04-11T05:04:22.083Z,97.50
2018-04-11T05:05:22.065Z,114.20
2018-04-11T05:06:22.041Z,89.70
2018-04-11T05:07:22.015Z,91.70
2018-04-11T05:08:21.991Z,112.90
2018-04-11T05:09:21.959Z,95.50
2018-04-11T05:10:21.939Z,104.90
2018-04-11T05:11:21.921Z,117.40
2018-04-11T05:12:21.891Z,96.10
2018-04-11T05:13:21.865Z,114.00
2018-04-11T05:14:21.834Z,92.10
2018-04-11T05:15:21.820Z,103.40
2018-04-11T05:16:21.790Z,107.30
2018-04-11T05:17:21.761Z,133.10
2018-04-11T05:18:21.742Z,118.10
2018-04-11T05:19:21.712Z,121.80
2018-04-11T05:20:21.687Z,123.20
2018-04-11T05:21:21.671Z,123.20
2018-04-11T05:22:21.634Z,121.70
2018-04-11T05:23:21.613Z,132.40
2018-04-11T05:24:21.592Z,133.90
2018-04-11T05:25:21.564Z,130.60
2018-04-11T05:26:21.537Z,133.60
2018-04-11T05:27:21.516Z,131.80
2018-04-11T05:28:21.495Z,129.60
2018-04-11T05:29:21.468Z,129.90
2018-04-11T05:30:21.442Z,134.90
2018-04-11T05:31:21.415Z,142.70
2018-04-11T05:32:21.391Z,133.80
2018-04-11T05:33:21.372Z,132.50
2018-04-11T05:34:21.338Z,117.50
2018-04-11T05:35:21.321Z,127.40
2018-04-11T05:36:21.294Z,122.20
2018-04-11T05:37:21.268Z,127.00
2018-04-11T05:38:21.241Z,127.80
2018-04-11T05:39:21.215Z,125.70
2018-04-11T05:40:21.206Z,136.60
2018-04-11T05:41:21.183Z,142.30
2018-04-11T05:42:21.145Z,149.70
2018-04-11T05:43:21.119Z,126.70
2018-04-11T05:44:21.092Z,107.40
2018-04-11T05:45:21.068Z,124.50
2018-04-11T05:46:21.048Z,138.20
2018-04-11T05:47:21.060Z,98.50
2018-04-11T05:48:20.994Z,93.90
2018-04-11T05:49:20.977Z,99.90
2018-04-11T05:50:20.945Z,89.80
2018-04-11T05:51:20.927Z,106.00
2018-04-11T05:52:20.901Z,94.60
2018-04-11T05:53:20.919Z,87.60
2018-04-11T05:54:20.863Z,91.40
2018-04-11T05:55:20.829Z,95.70
2018-04-11T05:56:20.802Z,85.90
2018-04-11T05:57:20.777Z,87.10
2018-04-11T05:58:20.748Z,98.00
2018-04-11T05:59:20.724Z,103.50
2018-04-11T06:00:20.699Z,98.60
2018-04-11T06:01:20.672Z,95.30
2018-04-11T06:02:20.655Z,89.30
2018-04-11T06:03:20.633Z,81.00
2018-04-11T06:04:20.606Z,90.70
2018-04-11T06:05:20.596Z,98.60
2018-04-11T06:06:20.588Z,122.80
2018-04-11T06:07:20.533Z,121.40
2018-04-11T06:08:20.503Z,119.70
2018-04-11T06:09:20.483Z,137.00
2018-04-11T06:10:20.530Z,108.30
2018-04-11T06:11:20.432Z,135.90
2018-04-11T06:12:20.411Z,128.40
2018-04-11T06:13:20.380Z,134.40
2018-04-11T06:14:20.361Z,114.80
2018-04-11T06:15:20.331Z,101.00
2018-04-11T06:16:20.310Z,117.50
2018-04-11T06:17:20.287Z,125.70
2018-04-11T06:18:20.259Z,103.20
2018-04-11T06:19:20.248Z,117.60
2018-04-11T06:20:20.208Z,119.00
2018-04-11T06:21:20.188Z,95.70
2018-04-11T06:22:20.158Z,103.70
2018-04-11T06:23:20.136Z,83.60
2018-04-11T06:24:20.120Z,97.10
2018-04-11T06:25:20.081Z,88.30
2018-04-11T06:26:20.057Z,82.60
2018-04-11T06:27:20.034Z,79.40
2018-04-11T06:28:20.014Z,99.60
2018-04-11T06:29:19.988Z,87.60
2018-04-11T06:30:19.962Z,92.30
2018-04-11T06:31:19.942Z,76.10
2018-04-11T06:32:19.919Z,82.80
2018-04-11T06:33:19.890Z,93.40
2018-04-11T06:34:19.864Z,86.50
2018-04-11T06:35:19.844Z,103.40
2018-04-11T06:36:19.814Z,88.10
2018-04-11T06:37:19.791Z,84.40
2018-04-11T06:38:19.767Z,90.50
2018-04-11T06:39:19.741Z,92.40
2018-04-11T06:40:19.718Z,91.10
2018-04-11T06:41:19.691Z,86.10
2018-04-11T06:42:19.666Z,80.40
2018-04-11T06:43:19.645Z,91.60
2018-04-11T06:44:19.619Z,92.00
2018-04-11T06:45:19.596Z,91.30
2018-04-11T06:46:19.568Z,76.90
2018-04-11T06:47:19.625Z,66.50
2018-04-11T06:48:19.520Z,69.30
2018-04-11T06:49:19.501Z,76.40
2018-04-11T06:50:19.474Z,83.20
2018-04-11T06:51:19.445Z,80.00
2018-04-11T06:52:19.427Z,81.10
2018-04-11T06:53:19.397Z,78.80
2018-04-11T06:54:19.380Z,69.30
2018-04-11T06:55:19.351Z,67.00
2018-04-11T06:56:19.352Z,68.10
2018-04-11T06:57:19.299Z,69.70
2018-04-11T06:58:19.329Z,83.40
2018-04-11T06:59:19.251Z,75.90
2018-04-11T07:00:19.259Z,74.80
2018-04-11T07:01:19.202Z,80.50
2018-04-11T07:02:19.185Z,73.50
2018-04-11T07:03:19.152Z,64.60
2018-04-11T07:04:19.137Z,72.00
2018-04-11T07:05:19.103Z,80.90
2018-04-11T07:06:19.079Z,71.60
2018-04-11T07:07:19.058Z,92.00
2018-04-11T07:08:19.038Z,77.60
2018-04-11T07:09:19.005Z,80.70
2018-04-11T07:10:18.982Z,79.40
2018-04-11T07:11:18.964Z,76.00
2018-04-11T07:12:18.939Z,78.30
2018-04-11T07:13:18.912Z,79.60
2018-04-11T07:14:18.887Z,82.60
2018-04-11T07:15:18.897Z,64.70
2018-04-11T07:16:18.845Z,71.10
2018-04-11T07:17:18.809Z,68.00
2018-04-11T07:18:18.788Z,61.00
2018-04-11T07:19:18.774Z,63.30
2018-04-11T07:20:18.741Z,73.60
2018-04-11T07:21:18.716Z,67.20
2018-04-11T07:22:18.695Z,62.40
2018-04-11T07:23:18.668Z,71.60
2018-04-11T07:24:18.647Z,80.00
2018-04-11T07:25:18.625Z,65.50
2018-04-11T07:26:18.596Z,72.70
2018-04-11T07:27:18.573Z,56.20
2018-04-11T07:28:18.553Z,61.70
2018-04-11T07:29:18.528Z,63.20
2018-04-11T07:30:18.500Z,55.10
2018-04-11T07:31:18.484Z,51.40
2018-04-11T07:32:18.454Z,56.00
2018-04-11T07:33:18.427Z,55.70
2018-04-11T07:34:18.403Z,60.10
2018-04-11T07:35:18.383Z,60.00
2018-04-11T07:36:18.355Z,48.70
2018-04-11T07:37:18.329Z,44.90
2018-04-11T07:38:18.306Z,52.30
2018-04-11T07:39:18.287Z,45.00
2018-04-11T07:40:18.271Z,50.00
2018-04-11T07:41:18.234Z,48.40
2018-04-11T07:42:18.218Z,46.10
2018-04-11T07:43:18.187Z,46.70
2018-04-11T07:44:18.160Z,43.20
2018-04-11T07:45:18.143Z,37.70
2018-04-11T07:46:18.116Z,39.90
2018-04-11T07:47:18.096Z,44.50
2018-04-11T07:48:18.083Z,41.20
2018-04-11T07:49:18.047Z,43.90
2018-04-11T07:50:18.020Z,44.40
2018-04-11T07:51:18.046Z,43.00
2018-04-11T07:52:17.976Z,43.20
2018-04-11T07:53:17.955Z,42.30
2018-04-11T07:54:17.921Z,41.40
2018-04-11T07:55:17.906Z,50.60
2018-04-11T07:56:17.874Z,51.40
2018-04-11T07:57:17.859Z,43.80
2018-04-11T07:58:17.830Z,41.10
2018-04-11T07:59:17.827Z,44.70
2018-04-11T08:00:17.781Z,52.10
2018-04-11T08:01:17.761Z,52.50
2018-04-11T08:02:17.737Z,52.00
2018-04-11T08:03:17.803Z,51.10
2018-04-11T08:04:17.695Z,50.80
2018-04-11T08:05:17.663Z,50.60
2018-04-11T08:06:17.646Z,44.40
2018-04-11T08:07:17.614Z,47.40
2018-04-11T08:08:17.598Z,43.20
2018-04-11T08:09:17.565Z,51.40
2018-04-11T08:10:17.549Z,47.60
2018-04-11T08:11:17.519Z,49.30
2018-04-11T08:12:17.504Z,51.00
2018-04-11T08:13:17.472Z,44.90
2018-04-11T08:14:17.454Z,51.40
2018-04-11T08:15:17.428Z,50.40
2018-04-11T08:16:17.420Z,40.40
2018-04-11T08:17:17.380Z,43.50
2018-04-11T08:18:17.357Z,49.50
2018-04-11T08:19:17.335Z,44.90
2018-04-11T08:20:17.318Z,44.30
2018-04-11T08:21:17.286Z,43.00
2018-04-11T08:22:17.261Z,43.60
2018-04-11T08:23:17.298Z,43.10
2018-04-11T08:24:17.214Z,48.20
2018-04-11T08:25:17.193Z,46.40
2018-04-11T08:26:17.169Z,48.20
2018-04-11T08:27:17.178Z,51.50
2018-04-11T08:28:17.125Z,47.90
2018-04-11T08:29:17.100Z,52.30
2018-04-11T08:30:17.116Z,51.40
2018-04-11T08:31:17.053Z,47.20
2018-04-11T08:32:17.045Z,46.70
2018-04-11T08:33:17.026Z,54.60
2018-04-11T08:34:16.982Z,49.80
2018-04-11T08:35:16.988Z,50.60
2018-04-11T08:36:16.939Z,47.70
2018-04-11T08:37:16.912Z,47.40
2018-04-11T08:38:16.912Z,51.90
2018-04-11T08:39:16.870Z,50.90
2018-04-11T08:40:16.843Z,55.00
2018-04-11T08:41:16.816Z,52.90
2018-04-11T08:42:16.796Z,48.30
2018-04-11T08:43:16.777Z,55.10
2018-04-11T08:44:16.756Z,49.00
2018-04-11T08:45:16.725Z,49.40
2018-04-11T08:46:16.710Z,54.80
2018-04-11T08:47:16.682Z,47.00
2018-04-11T08:48:16.656Z,54.90
2018-04-11T08:49:16.643Z,52.70
2018-04-11T08:50:16.617Z,50.60
2018-04-11T08:51:16.604Z,53.50
2018-04-11T08:52:16.562Z,48.00
2018-04-11T08:53:16.547Z,53.30
2018-04-11T08:54:16.523Z,51.90
2018-04-11T08:55:16.492Z,57.90
2018-04-11T08:56:16.471Z,53.40
2018-04-11T08:57:16.444Z,52.20
2018-04-11T08:58:16.423Z,52.10
2018-04-11T08:59:16.405Z,58.50
2018-04-11T09:00:16.376Z,52.90
2018-04-11T09:01:16.367Z,55.00
2018-04-11T09:02:16.336Z,52.70
2018-04-11T09:03:16.308Z,61.30
2018-04-11T09:04:16.288Z,56.90
2018-04-11T09:05:16.262Z,58.20
2018-04-11T09:06:16.237Z,61.30
2018-04-11T09:07:16.217Z,56.00
2018-04-11T09:08:16.191Z,61.80
2018-04-11T09:09:16.172Z,61.00
2018-04-11T09:10:16.146Z,66.70
2018-04-11T09:11:16.159Z,69.40
2018-04-11T09:12:16.096Z,63.00
2018-04-11T09:13:16.074Z,63.20
2018-04-11T09:14:16.055Z,63.40
2018-04-11T09:15:16.031Z,66.20
2018-04-11T09:16:16.006Z,67.00
2018-04-11T09:17:15.987Z,64.80
2018-04-11T09:18:15.958Z,65.60
2018-04-11T09:19:15.940Z,60.40
2018-04-11T09:20:15.917Z,69.10
2018-04-11T09:21:15.910Z,66.40
2018-04-11T09:22:15.867Z,64.50
2018-04-11T09:23:15.847Z,61.40
2018-04-11T09:24:15.822Z,55.60
2018-04-11T09:25:15.796Z,55.20
2018-04-11T09:26:15.774Z,60.40
2018-04-11T09:27:15.753Z,56.40
2018-04-11T09:28:15.754Z,56.70
2018-04-11T09:29:15.730Z,61.40
2018-04-11T09:30:15.679Z,65.20
2018-04-11T09:31:15.660Z,64.80
2018-04-11T09:32:15.641Z,58.20
2018-04-11T09:33:15.606Z,59.30
2018-04-11T09:34:15.587Z,58.40
2018-04-11T09:35:15.569Z,60.90
2018-04-11T09:36:15.544Z,64.20
2018-04-11T09:37:15.537Z,68.30
2018-04-11T09:38:15.516Z,62.80
2018-04-11T09:39:15.470Z,69.30
2018-04-11T09:40:15.457Z,70.50
2018-04-11T09:41:15.426Z,74.10
2018-04-11T09:42:15.418Z,71.20
2018-04-11T09:43:15.382Z,70.80
2018-04-11T09:44:15.358Z,67.80
2018-04-11T09:45:15.338Z,66.90
2018-04-11T09:46:15.318Z,74.60
2018-04-11T09:47:15.287Z,72.40
2018-04-11T09:48:15.259Z,70.30
2018-04-11T09:49:15.250Z,79.40
2018-04-11T09:50:15.220Z,76.50
2018-04-11T09:51:15.188Z,74.30
2018-04-11T09:52:15.167Z,76.20
2018-04-11T09:53:15.149Z,70.70
2018-04-11T09:54:15.116Z,69.90
2018-04-11T09:55:15.106Z,73.20
2018-04-11T09:56:15.087Z,65.80
2018-04-11T09:57:15.072Z,66.20
2018-04-11T09:58:15.043Z,72.90
2018-04-11T09:59:15.022Z,75.70
2018-04-11T10:00:14.998Z,73.30
2018-04-11T10:01:14.974Z,72.70
2018-04-11T10:02:14.935Z,72.90
2018-04-11T10:03:14.961Z,77.20
2018-04-11T10:04:14.915Z,70.50
2018-04-11T10:05:14.893Z,75.20
2018-04-11T10:06:14.860Z,79.50
2018-04-11T10:07:14.846Z,82.70
2018-04-11T10:08:14.820Z,81.80
2018-04-11T10:09:14.802Z,73.70
2018-04-11T10:10:14.774Z,81.10
2018-04-11T10:11:14.730Z,75.00
2018-04-11T10:12:14.708Z,73.50
2018-04-11T10:13:14.676Z,80.60
2018-04-11T10:14:14.650Z,79.40
2018-04-11T10:15:14.626Z,83.30
2018-04-11T10:16:14.608Z,77.80
2018-04-11T10:17:14.578Z,80.10
2018-04-11T10:18:14.577Z,76.30
2018-04-11T10:19:14.563Z,71.90
2018-04-11T10:20:14.505Z,75.90
2018-04-11T10:21:14.507Z,71.30
2018-04-11T10:22:14.459Z,73.10
2018-04-11T10:23:14.439Z,72.80
2018-04-11T10:24:14.461Z,76.20
2018-04-11T10:25:14.390Z,71.30
2018-04-11T10:26:14.377Z,72.00
2018-04-11T10:27:14.349Z,78.30
2018-04-11T10:28:14.316Z,79.20
2018-04-11T10:29:14.303Z,80.50
2018-04-11T10:30:14.271Z,83.10
2018-04-11T10:31:14.251Z,82.10
2018-04-11T10:32:14.231Z,83.60
2018-04-11T10:33:14.218Z,90.90
2018-04-11T10:34:14.179Z,91.50
2018-04-11T10:35:14.156Z,91.70
2018-04-11T10:36:14.134Z,88.60
2018-04-11T10:37:14.104Z,85.30
2018-04-11T10:38:14.082Z,89.30
2018-04-11T10:39:14.065Z,102.50
2018-04-11T10:40:14.036Z,94.20
2018-04-11T10:41:14.013Z,94.70
2018-04-11T10:42:13.992Z,98.70
2018-04-11T10:43:13.968Z,95.60
2018-04-11T10:44:13.944Z,100.80
2018-04-11T10:45:13.915Z,108.70
2018-04-11T10:46:13.907Z,108.80
2018-04-11T10:47:13.875Z,111.10
2018-04-11T10:48:13.843Z,110.10
2018-04-11T10:49:13.823Z,113.60
2018-04-11T10:50:13.800Z,102.30
2018-04-11T10:51:13.772Z,121.90
2018-04-11T10:52:13.749Z,113.50
2018-04-11T10:53:13.732Z,112.40
2018-04-11T10:54:13.706Z,115.90
2018-04-11T10:55:13.674Z,116.40
2018-04-11T10:56:13.653Z,120.50
2018-04-11T10:57:13.637Z,120.10
2018-04-11T10:58:13.610Z,123.80
2018-04-11T10:59:13.581Z,125.70
2018-04-11T11:00:13.561Z,128.20
2018-04-11T11:01:13.533Z,137.40
2018-04-11T11:02:13.514Z,135.80
2018-04-11T11:03:13.483Z,139.90
2018-04-11T11:04:13.462Z,129.90
2018-04-11T11:05:13.441Z,135.30
2018-04-11T11:06:13.419Z,128.50
2018-04-11T11:07:13.387Z,123.50
2018-04-11T11:08:13.371Z,117.20
2018-04-11T11:09:13.337Z,120.60
2018-04-11T11:10:13.319Z,116.40
2018-04-11T11:11:13.294Z,119.40
2018-04-11T11:12:13.272Z,119.80
2018-04-11T11:13:13.246Z,120.50
2018-04-11T11:14:13.235Z,113.00
2018-04-11T11:15:13.196Z,115.00
2018-04-11T11:16:13.175Z,111.50
2018-04-11T11:17:13.153Z,101.40
2018-04-11T11:18:13.137Z,101.70
2018-04-11T11:19:13.103Z,99.00
2018-04-11T11:20:13.081Z,100.50
2018-04-11T11:21:13.061Z,107.40
2018-04-11T11:22:13.078Z,114.30
2018-04-11T11:23:13.009Z,109.60
2018-04-11T11:24:12.983Z,108.00
2018-04-11T11:25:12.963Z,98.10
2018-04-11T11:26:12.943Z,100.30
2018-04-11T11:27:12.917Z,110.80
2018-04-11T11:28:12.926Z,104.90
2018-04-11T11:29:12.867Z,111.10
2018-04-11T11:30:12.842Z,111.50
2018-04-11T11:31:12.825Z,118.50
2018-04-11T11:32:12.801Z,112.00
2018-04-11T11:33:13.727Z,112.30
2018-04-11T11:34:12.748Z,116.70
2018-04-11T11:35:12.733Z,115.30
2018-04-11T11:36:12.726Z,130.90
2018-04-11T11:37:12.688Z,119.50
2018-04-11T11:38:12.652Z,121.30
2018-04-11T11:39:12.632Z,118.70
2018-04-11T11:40:12.617Z,123.00
2018-04-11T11:41:12.582Z,118.60
2018-04-11T11:42:12.556Z,131.00
2018-04-11T11:43:12.539Z,126.90
2018-04-11T11:44:12.513Z,120.70
2018-04-11T11:45:12.487Z,125.80
2018-04-11T11:46:12.467Z,113.60
2018-04-11T11:47:12.435Z,111.40
2018-04-11T11:48:12.419Z,114.90
2018-04-11T11:49:12.389Z,120.90
2018-04-11T11:50:12.369Z,128.80
2018-04-11T11:51:12.342Z,131.80
2018-04-11T11:52:12.325Z,138.20
2018-04-11T11:53:12.297Z,132.60
2018-04-11T11:54:12.280Z,132.60
2018-04-11T11:55:12.247Z,131.80
2018-04-11T11:56:12.225Z,136.90
2018-04-11T11:57:12.198Z,173.90
2018-04-11T11:58:12.180Z,200.20
2018-04-11T11:59:12.148Z,232.40
2018-04-11T12:00:12.138Z,153.10
2018-04-11T12:01:12.104Z,116.30
2018-04-11T12:02:12.112Z,121.00
2018-04-11T12:03:12.052Z,102.50
2018-04-11T12:04:12.027Z,96.70
2018-04-11T12:05:12.012Z,102.50
2018-04-11T12:06:11.980Z,103.20
2018-04-11T12:07:11.959Z,129.40
2018-04-11T12:08:11.937Z,139.50
2018-04-11T12:09:11.908Z,138.50
2018-04-11T12:10:11.891Z,161.40
2018-04-11T12:11:11.853Z,126.80
2018-04-11T12:12:11.837Z,110.90
2018-04-11T12:13:11.808Z,120.00
2018-04-11T12:14:11.841Z,113.40
2018-04-11T12:15:11.769Z,112.30
2018-04-11T12:16:11.746Z,92.30
2018-04-11T12:17:11.707Z,123.80
2018-04-11T12:18:11.683Z,100.60
2018-04-11T12:19:11.662Z,106.30
2018-04-11T12:20:11.638Z,96.80
2018-04-11T12:21:11.606Z,91.60
2018-04-11T12:22:11.585Z,106.30
2018-04-11T12:23:11.570Z,100.90
2018-04-11T12:24:11.536Z,102.60
2018-04-11T12:25:11.561Z,93.10
2018-04-11T12:26:11.485Z,103.40
2018-04-11T12:27:11.458Z,95.60
2018-04-11T12:28:11.435Z,92.40
2018-04-11T12:29:11.415Z,118.80
2018-04-11T12:30:11.389Z,94.50
2018-04-11T12:31:11.357Z,100.20
2018-04-11T12:32:11.341Z,105.50
2018-04-11T12:33:11.421Z,91.20
2018-04-11T12:34:11.332Z,111.40
2018-04-11T12:35:11.296Z,101.20
2018-04-11T12:36:11.343Z,111.90
2018-04-11T12:37:11.246Z,125.70
2018-04-11T12:38:11.282Z,120.10
2018-04-11T12:39:11.160Z,132.10
2018-04-11T12:40:11.145Z,135.50
2018-04-11T12:41:11.110Z,116.00
2018-04-11T12:42:11.088Z,121.80
2018-04-11T12:43:11.064Z,111.10
2018-04-11T12:44:11.044Z,111.80